sensor_id;sensor_type;location;lat;lon;timestamp;temperature;humidity
53268;DHT22;39156;51.176;6.738;2023-05-10T00:01:41;14.30;80.20
53268;DHT22;39156;51.176;6.738;2023-05-10T00:04:06;14.30;80.40
53268;DHT22;39156;51.176;6.738;2023-05-10T00:06:33;14.30;80.30
53268;DHT22;39156;51.176;6.738;2023-05-10T00:08:58;14.30;80.50
53268;DHT22;39156;51.176;6.738;2023-05-10T00:11:24;14.40;80.70
53268;DHT22;39156;51.176;6.738;2023-05-10T00:13:50;14.30;80.50
53268;DHT22;39156;51.176;6.738;2023-05-10T00:16:15;14.30;80.60
53268;DHT22;39156;51.176;6.738;2023-05-10T00:18:41;14.30;80.60
53268;DHT22;39156;51.176;6.738;2023-05-10T00:21:07;14.30;80.70
53268;DHT22;39156;51.176;6.738;2023-05-10T00:23:32;14.30;80.80
53268;DHT22;39156;51.176;6.738;2023-05-10T00:25:58;14.30;81.00
53268;DHT22;39156;51.176;6.738;2023-05-10T00:28:24;14.30;80.90
53268;DHT22;39156;51.176;6.738;2023-05-10T00:30:49;14.30;81.00
53268;DHT22;39156;51.176;6.738;2023-05-10T00:33:15;14.30;81.00
53268;DHT22;39156;51.176;6.738;2023-05-10T00:35:40;14.30;81.10
53268;DHT22;39156;51.176;6.738;2023-05-10T00:38:06;14.30;81.10
53268;DHT22;39156;51.176;6.738;2023-05-10T00:40:32;14.30;81.10
53268;DHT22;39156;51.176;6.738;2023-05-10T00:42:58;14.30;81.10
53268;DHT22;39156;51.176;6.738;2023-05-10T00:45:25;14.30;81.10
53268;DHT22;39156;51.176;6.738;2023-05-10T00:47:52;14.30;81.20
53268;DHT22;39156;51.176;6.738;2023-05-10T00:50:21;14.30;81.10
53268;DHT22;39156;51.176;6.738;2023-05-10T00:52:47;14.30;81.20
53268;DHT22;39156;51.176;6.738;2023-05-10T00:55:13;14.30;81.10
53268;DHT22;39156;51.176;6.738;2023-05-10T00:57:39;14.30;81.10
53268;DHT22;39156;51.176;6.738;2023-05-10T01:00:05;14.30;80.60
53268;DHT22;39156;51.176;6.738;2023-05-10T01:02:33;14.30;80.80
53268;DHT22;39156;51.176;6.738;2023-05-10T01:05:00;14.30;80.80
53268;DHT22;39156;51.176;6.738;2023-05-10T01:07:28;14.20;81.10
53268;DHT22;39156;51.176;6.738;2023-05-10T01:09:53;14.20;81.10
53268;DHT22;39156;51.176;6.738;2023-05-10T01:12:19;14.20;81.00
53268;DHT22;39156;51.176;6.738;2023-05-10T01:14:45;14.10;81.00
53268;DHT22;39156;51.176;6.738;2023-05-10T01:17:12;14.10;81.00
53268;DHT22;39156;51.176;6.738;2023-05-10T01:19:37;14.10;81.30
53268;DHT22;39156;51.176;6.738;2023-05-10T01:25:08;14.10;81.00
53268;DHT22;39156;51.176;6.738;2023-05-10T01:28:07;14.10;80.80
53268;DHT22;39156;51.176;6.738;2023-05-10T01:33:47;14.10;81.10
53268;DHT22;39156;51.176;6.738;2023-05-10T01:36:31;14.10;81.10
53268;DHT22;39156;51.176;6.738;2023-05-10T01:39:20;14.10;80.90
53268;DHT22;39156;51.176;6.738;2023-05-10T01:44:46;14.00;81.40
53268;DHT22;39156;51.176;6.738;2023-05-10T01:47:33;14.00;81.30
53268;DHT22;39156;51.176;6.738;2023-05-10T01:50:04;14.00;81.00
53268;DHT22;39156;51.176;6.738;2023-05-10T01:52:37;13.90;80.90
53268;DHT22;39156;51.176;6.738;2023-05-10T01:55:15;13.90;81.10
53268;DHT22;39156;51.176;6.738;2023-05-10T01:57:43;13.90;81.00
53268;DHT22;39156;51.176;6.738;2023-05-10T02:00:10;13.90;81.10
53268;DHT22;39156;51.176;6.738;2023-05-10T02:02:41;13.90;81.20
53268;DHT22;39156;51.176;6.738;2023-05-10T02:05:12;13.80;81.30
53268;DHT22;39156;51.176;6.738;2023-05-10T02:07:39;13.90;81.40
53268;DHT22;39156;51.176;6.738;2023-05-10T02:10:06;13.80;81.30
53268;DHT22;39156;51.176;6.738;2023-05-10T02:12:37;13.90;81.30
53268;DHT22;39156;51.176;6.738;2023-05-10T02:15:07;13.80;81.30
53268;DHT22;39156;51.176;6.738;2023-05-10T02:17:35;13.80;81.20
53268;DHT22;39156;51.176;6.738;2023-05-10T02:20:03;13.80;81.20
53268;DHT22;39156;51.176;6.738;2023-05-10T02:22:31;13.80;81.30
53268;DHT22;39156;51.176;6.738;2023-05-10T02:24:58;13.80;81.30
53268;DHT22;39156;51.176;6.738;2023-05-10T02:27:25;13.80;81.30
53268;DHT22;39156;51.176;6.738;2023-05-10T02:29:53;13.80;81.30
53268;DHT22;39156;51.176;6.738;2023-05-10T02:32:21;13.80;81.40
53268;DHT22;39156;51.176;6.738;2023-05-10T02:34:48;13.80;81.50
53268;DHT22;39156;51.176;6.738;2023-05-10T02:37:19;13.80;81.40
53268;DHT22;39156;51.176;6.738;2023-05-10T02:39:50;13.80;81.20
53268;DHT22;39156;51.176;6.738;2023-05-10T02:42:18;13.70;81.40
53268;DHT22;39156;51.176;6.738;2023-05-10T02:44:48;13.90;81.70
53268;DHT22;39156;51.176;6.738;2023-05-10T02:47:14;13.80;81.50
53268;DHT22;39156;51.176;6.738;2023-05-10T02:49:40;13.80;81.70
53268;DHT22;39156;51.176;6.738;2023-05-10T02:52:07;13.80;81.70
53268;DHT22;39156;51.176;6.738;2023-05-10T02:54:41;13.80;81.80
53268;DHT22;39156;51.176;6.738;2023-05-10T02:57:14;13.80;82.10
53268;DHT22;39156;51.176;6.738;2023-05-10T02:59:41;13.80;81.90
53268;DHT22;39156;51.176;6.738;2023-05-10T03:02:10;13.80;82.30
53268;DHT22;39156;51.176;6.738;2023-05-10T03:04:37;13.80;81.90
53268;DHT22;39156;51.176;6.738;2023-05-10T03:07:03;13.90;82.00
53268;DHT22;39156;51.176;6.738;2023-05-10T03:09:30;13.80;82.00
53268;DHT22;39156;51.176;6.738;2023-05-10T03:12:05;13.90;82.00
53268;DHT22;39156;51.176;6.738;2023-05-10T03:20:16;13.90;81.80
53268;DHT22;39156;51.176;6.738;2023-05-10T03:22:51;14.00;81.90
53268;DHT22;39156;51.176;6.738;2023-05-10T03:25:22;13.90;81.70
53268;DHT22;39156;51.176;6.738;2023-05-10T03:27:48;13.90;81.60
53268;DHT22;39156;51.176;6.738;2023-05-10T03:30:14;13.90;81.80
53268;DHT22;39156;51.176;6.738;2023-05-10T03:32:41;14.00;81.80
53268;DHT22;39156;51.176;6.738;2023-05-10T03:35:08;14.00;81.90
53268;DHT22;39156;51.176;6.738;2023-05-10T03:37:34;13.90;81.80
53268;DHT22;39156;51.176;6.738;2023-05-10T03:40:00;14.00;82.00
53268;DHT22;39156;51.176;6.738;2023-05-10T03:42:26;14.00;82.10
53268;DHT22;39156;51.176;6.738;2023-05-10T03:44:52;14.00;82.00
53268;DHT22;39156;51.176;6.738;2023-05-10T03:47:17;14.00;81.80
53268;DHT22;39156;51.176;6.738;2023-05-10T03:49:43;14.00;82.10
53268;DHT22;39156;51.176;6.738;2023-05-10T03:52:09;14.00;82.10
53268;DHT22;39156;51.176;6.738;2023-05-10T03:54:34;14.00;82.20
53268;DHT22;39156;51.176;6.738;2023-05-10T03:57:00;14.00;82.10
53268;DHT22;39156;51.176;6.738;2023-05-10T03:59:26;14.00;82.20
53268;DHT22;39156;51.176;6.738;2023-05-10T04:01:52;14.00;82.20
53268;DHT22;39156;51.176;6.738;2023-05-10T04:04:17;14.00;82.10
53268;DHT22;39156;51.176;6.738;2023-05-10T04:06:44;14.00;82.00
53268;DHT22;39156;51.176;6.738;2023-05-10T04:09:10;14.10;82.20
53268;DHT22;39156;51.176;6.738;2023-05-10T04:11:36;14.00;82.20
53268;DHT22;39156;51.176;6.738;2023-05-10T04:14:02;14.10;82.20
53268;DHT22;39156;51.176;6.738;2023-05-10T04:16:28;14.10;82.20
53268;DHT22;39156;51.176;6.738;2023-05-10T04:18:53;14.00;82.10
53268;DHT22;39156;51.176;6.738;2023-05-10T04:21:19;14.00;82.10
53268;DHT22;39156;51.176;6.738;2023-05-10T04:23:45;14.10;82.20
53268;DHT22;39156;51.176;6.738;2023-05-10T04:26:11;14.00;82.20
53268;DHT22;39156;51.176;6.738;2023-05-10T04:28:37;14.00;82.30
53268;DHT22;39156;51.176;6.738;2023-05-10T04:31:07;14.00;82.20
53268;DHT22;39156;51.176;6.738;2023-05-10T04:33:34;14.00;82.40
53268;DHT22;39156;51.176;6.738;2023-05-10T04:36:01;14.00;82.40
53268;DHT22;39156;51.176;6.738;2023-05-10T04:38:27;14.00;82.40
53268;DHT22;39156;51.176;6.738;2023-05-10T04:40:53;14.00;82.30
53268;DHT22;39156;51.176;6.738;2023-05-10T04:43:19;14.10;82.50
53268;DHT22;39156;51.176;6.738;2023-05-10T04:45:45;14.00;82.40
53268;DHT22;39156;51.176;6.738;2023-05-10T04:48:11;14.00;82.40
53268;DHT22;39156;51.176;6.738;2023-05-10T04:50:37;14.00;82.50
53268;DHT22;39156;51.176;6.738;2023-05-10T04:53:04;14.00;82.40
53268;DHT22;39156;51.176;6.738;2023-05-10T04:55:30;14.10;82.70
53268;DHT22;39156;51.176;6.738;2023-05-10T04:57:56;14.10;82.40
53268;DHT22;39156;51.176;6.738;2023-05-10T05:00:22;14.10;82.60
53268;DHT22;39156;51.176;6.738;2023-05-10T05:02:48;14.10;82.90
53268;DHT22;39156;51.176;6.738;2023-05-10T05:05:14;14.10;82.70
53268;DHT22;39156;51.176;6.738;2023-05-10T05:07:40;14.10;82.80
53268;DHT22;39156;51.176;6.738;2023-05-10T05:10:07;14.10;82.60
53268;DHT22;39156;51.176;6.738;2023-05-10T05:12:33;14.10;82.70
53268;DHT22;39156;51.176;6.738;2023-05-10T05:14:59;14.20;82.80
53268;DHT22;39156;51.176;6.738;2023-05-10T05:17:25;14.30;82.80
53268;DHT22;39156;51.176;6.738;2023-05-10T05:19:51;14.30;82.60
53268;DHT22;39156;51.176;6.738;2023-05-10T05:22:16;14.30;82.30
53268;DHT22;39156;51.176;6.738;2023-05-10T05:24:42;14.30;82.10
53268;DHT22;39156;51.176;6.738;2023-05-10T05:27:08;14.30;82.10
53268;DHT22;39156;51.176;6.738;2023-05-10T05:29:33;14.30;81.80
53268;DHT22;39156;51.176;6.738;2023-05-10T05:31:59;14.30;81.80
53268;DHT22;39156;51.176;6.738;2023-05-10T05:34:25;14.30;81.60
53268;DHT22;39156;51.176;6.738;2023-05-10T05:36:51;14.30;81.60
53268;DHT22;39156;51.176;6.738;2023-05-10T05:39:17;14.20;81.40
53268;DHT22;39156;51.176;6.738;2023-05-10T05:41:42;14.30;81.50
53268;DHT22;39156;51.176;6.738;2023-05-10T05:44:08;14.20;81.60
53268;DHT22;39156;51.176;6.738;2023-05-10T05:46:34;14.20;81.60
53268;DHT22;39156;51.176;6.738;2023-05-10T05:49:00;14.20;81.40
53268;DHT22;39156;51.176;6.738;2023-05-10T05:51:25;14.20;81.50
53268;DHT22;39156;51.176;6.738;2023-05-10T05:53:51;14.30;81.40
53268;DHT22;39156;51.176;6.738;2023-05-10T05:56:17;14.20;81.30
53268;DHT22;39156;51.176;6.738;2023-05-10T05:58:52;14.20;81.30
53268;DHT22;39156;51.176;6.738;2023-05-10T06:01:18;14.20;81.20
53268;DHT22;39156;51.176;6.738;2023-05-10T06:03:43;14.10;81.40
53268;DHT22;39156;51.176;6.738;2023-05-10T06:06:09;14.20;81.30
53268;DHT22;39156;51.176;6.738;2023-05-10T06:08:35;14.20;81.00
53268;DHT22;39156;51.176;6.738;2023-05-10T06:11:01;14.10;81.00
53268;DHT22;39156;51.176;6.738;2023-05-10T06:13:26;14.10;80.90
53268;DHT22;39156;51.176;6.738;2023-05-10T06:15:58;14.10;81.00
53268;DHT22;39156;51.176;6.738;2023-05-10T06:18:24;14.10;81.20
53268;DHT22;39156;51.176;6.738;2023-05-10T06:20:50;14.10;81.10
53268;DHT22;39156;51.176;6.738;2023-05-10T06:23:16;14.10;81.40
53268;DHT22;39156;51.176;6.738;2023-05-10T06:25:42;14.10;81.50
53268;DHT22;39156;51.176;6.738;2023-05-10T06:28:08;14.00;81.60
53268;DHT22;39156;51.176;6.738;2023-05-10T06:30:35;14.00;81.40
53268;DHT22;39156;51.176;6.738;2023-05-10T06:33:01;14.00;81.20
53268;DHT22;39156;51.176;6.738;2023-05-10T06:35:28;14.00;81.30
53268;DHT22;39156;51.176;6.738;2023-05-10T06:37:54;14.00;81.40
53268;DHT22;39156;51.176;6.738;2023-05-10T06:40:20;14.00;81.60
53268;DHT22;39156;51.176;6.738;2023-05-10T06:42:47;13.90;81.80
53268;DHT22;39156;51.176;6.738;2023-05-10T06:45:13;13.90;82.00
53268;DHT22;39156;51.176;6.738;2023-05-10T06:47:40;14.10;82.30
53268;DHT22;39156;51.176;6.738;2023-05-10T06:50:09;14.00;82.10
53268;DHT22;39156;51.176;6.738;2023-05-10T06:52:36;14.10;82.40
53268;DHT22;39156;51.176;6.738;2023-05-10T06:55:04;14.20;83.00
53268;DHT22;39156;51.176;6.738;2023-05-10T06:57:30;14.30;82.50
53268;DHT22;39156;51.176;6.738;2023-05-10T06:59:56;14.40;82.20
53268;DHT22;39156;51.176;6.738;2023-05-10T07:02:22;14.50;82.00
53268;DHT22;39156;51.176;6.738;2023-05-10T07:04:48;14.50;81.80
53268;DHT22;39156;51.176;6.738;2023-05-10T07:07:14;14.70;81.20
53268;DHT22;39156;51.176;6.738;2023-05-10T07:09:40;14.80;81.20
53268;DHT22;39156;51.176;6.738;2023-05-10T07:12:06;14.80;81.10
53268;DHT22;39156;51.176;6.738;2023-05-10T07:14:31;14.90;81.00
53268;DHT22;39156;51.176;6.738;2023-05-10T07:16:57;14.90;80.70
53268;DHT22;39156;51.176;6.738;2023-05-10T07:19:23;15.00;80.80
53268;DHT22;39156;51.176;6.738;2023-05-10T07:21:49;15.10;80.80
53268;DHT22;39156;51.176;6.738;2023-05-10T07:24:16;15.10;80.40
53268;DHT22;39156;51.176;6.738;2023-05-10T07:26:41;15.20;80.50
53268;DHT22;39156;51.176;6.738;2023-05-10T07:29:07;15.30;80.30
53268;DHT22;39156;51.176;6.738;2023-05-10T07:31:33;15.30;79.80
53268;DHT22;39156;51.176;6.738;2023-05-10T07:33:58;15.40;79.80
53268;DHT22;39156;51.176;6.738;2023-05-10T07:36:24;15.30;79.80
53268;DHT22;39156;51.176;6.738;2023-05-10T07:38:50;15.40;80.10
53268;DHT22;39156;51.176;6.738;2023-05-10T07:41:15;15.40;79.40
53268;DHT22;39156;51.176;6.738;2023-05-10T07:43:41;15.40;79.20
53268;DHT22;39156;51.176;6.738;2023-05-10T07:46:07;15.30;78.80
53268;DHT22;39156;51.176;6.738;2023-05-10T07:48:32;15.30;78.60
53268;DHT22;39156;51.176;6.738;2023-05-10T07:50:58;15.30;78.60
53268;DHT22;39156;51.176;6.738;2023-05-10T07:53:25;15.30;78.80
53268;DHT22;39156;51.176;6.738;2023-05-10T07:55:59;15.20;79.10
53268;DHT22;39156;51.176;6.738;2023-05-10T07:58:24;15.20;78.90
53268;DHT22;39156;51.176;6.738;2023-05-10T08:00:50;15.20;79.30
53268;DHT22;39156;51.176;6.738;2023-05-10T08:03:16;15.30;79.50
53268;DHT22;39156;51.176;6.738;2023-05-10T08:05:42;15.30;79.80
53268;DHT22;39156;51.176;6.738;2023-05-10T08:08:07;15.50;79.80
53268;DHT22;39156;51.176;6.738;2023-05-10T08:10:33;15.50;78.80
53268;DHT22;39156;51.176;6.738;2023-05-10T08:12:59;15.70;78.60
53268;DHT22;39156;51.176;6.738;2023-05-10T08:15:25;15.70;78.40
53268;DHT22;39156;51.176;6.738;2023-05-10T08:17:53;15.80;79.00
53268;DHT22;39156;51.176;6.738;2023-05-10T08:20:19;15.80;78.20
53268;DHT22;39156;51.176;6.738;2023-05-10T08:22:46;15.90;78.00
53268;DHT22;39156;51.176;6.738;2023-05-10T08:25:12;16.00;77.70
53268;DHT22;39156;51.176;6.738;2023-05-10T08:27:37;16.20;78.00
53268;DHT22;39156;51.176;6.738;2023-05-10T08:30:03;16.30;78.40
53268;DHT22;39156;51.176;6.738;2023-05-10T08:32:29;16.50;78.40
53268;DHT22;39156;51.176;6.738;2023-05-10T08:34:56;16.70;77.70
53268;DHT22;39156;51.176;6.738;2023-05-10T08:37:23;16.80;76.40
53268;DHT22;39156;51.176;6.738;2023-05-10T08:39:49;17.00;75.50
53268;DHT22;39156;51.176;6.738;2023-05-10T08:42:18;17.00;74.40
53268;DHT22;39156;51.176;6.738;2023-05-10T08:44:48;17.10;74.30
53268;DHT22;39156;51.176;6.738;2023-05-10T08:47:15;17.00;73.20
53268;DHT22;39156;51.176;6.738;2023-05-10T08:49:42;17.00;73.20
53268;DHT22;39156;51.176;6.738;2023-05-10T08:52:11;16.90;72.90
53268;DHT22;39156;51.176;6.738;2023-05-10T08:54:38;16.80;73.20
53268;DHT22;39156;51.176;6.738;2023-05-10T08:57:04;16.70;73.50
53268;DHT22;39156;51.176;6.738;2023-05-10T08:59:30;16.70;73.30
53268;DHT22;39156;51.176;6.738;2023-05-10T09:01:57;16.60;73.40
53268;DHT22;39156;51.176;6.738;2023-05-10T09:04:24;16.60;73.90
53268;DHT22;39156;51.176;6.738;2023-05-10T09:06:50;16.50;74.00
53268;DHT22;39156;51.176;6.738;2023-05-10T09:09:17;16.50;73.20
53268;DHT22;39156;51.176;6.738;2023-05-10T09:11:43;16.50;73.40
53268;DHT22;39156;51.176;6.738;2023-05-10T09:14:11;16.40;73.30
53268;DHT22;39156;51.176;6.738;2023-05-10T09:16:38;16.40;73.50
53268;DHT22;39156;51.176;6.738;2023-05-10T09:19:03;16.40;73.90
53268;DHT22;39156;51.176;6.738;2023-05-10T09:21:30;16.40;73.90
53268;DHT22;39156;51.176;6.738;2023-05-10T09:23:56;16.40;73.70
53268;DHT22;39156;51.176;6.738;2023-05-10T09:26:23;16.40;73.40
53268;DHT22;39156;51.176;6.738;2023-05-10T09:28:59;16.30;73.30
53268;DHT22;39156;51.176;6.738;2023-05-10T09:31:46;16.20;72.80
53268;DHT22;39156;51.176;6.738;2023-05-10T09:34:18;16.20;72.50
53268;DHT22;39156;51.176;6.738;2023-05-10T09:36:54;16.20;73.00
53268;DHT22;39156;51.176;6.738;2023-05-10T09:39:30;16.10;73.10
53268;DHT22;39156;51.176;6.738;2023-05-10T09:42:02;16.10;72.70
53268;DHT22;39156;51.176;6.738;2023-05-10T09:44:31;16.10;73.50
53268;DHT22;39156;51.176;6.738;2023-05-10T09:46:59;16.20;74.00
53268;DHT22;39156;51.176;6.738;2023-05-10T09:49:26;16.20;73.70
53268;DHT22;39156;51.176;6.738;2023-05-10T09:52:00;16.20;73.50
53268;DHT22;39156;51.176;6.738;2023-05-10T09:54:26;16.30;73.20
53268;DHT22;39156;51.176;6.738;2023-05-10T09:56:52;16.40;73.60
53268;DHT22;39156;51.176;6.738;2023-05-10T09:59:18;16.40;73.70
53268;DHT22;39156;51.176;6.738;2023-05-10T10:01:49;16.50;73.00
53268;DHT22;39156;51.176;6.738;2023-05-10T10:04:17;16.50;72.20
53268;DHT22;39156;51.176;6.738;2023-05-10T10:06:43;16.50;72.30
53268;DHT22;39156;51.176;6.738;2023-05-10T10:09:09;16.50;72.50
53268;DHT22;39156;51.176;6.738;2023-05-10T10:11:38;16.50;72.80
53268;DHT22;39156;51.176;6.738;2023-05-10T10:14:04;16.50;72.70
53268;DHT22;39156;51.176;6.738;2023-05-10T10:16:31;16.60;72.80
53268;DHT22;39156;51.176;6.738;2023-05-10T10:18:57;16.70;72.80
53268;DHT22;39156;51.176;6.738;2023-05-10T10:21:23;16.80;73.00
53268;DHT22;39156;51.176;6.738;2023-05-10T10:23:49;16.90;72.90
53268;DHT22;39156;51.176;6.738;2023-05-10T10:26:17;17.00;72.00
53268;DHT22;39156;51.176;6.738;2023-05-10T10:34:52;17.50;70.20
53268;DHT22;39156;51.176;6.738;2023-05-10T10:37:19;17.70;71.20
53268;DHT22;39156;51.176;6.738;2023-05-10T10:39:48;17.80;70.50
53268;DHT22;39156;51.176;6.738;2023-05-10T10:42:44;17.90;69.40
53268;DHT22;39156;51.176;6.738;2023-05-10T10:45:12;18.00;69.00
53268;DHT22;39156;51.176;6.738;2023-05-10T10:47:38;18.00;69.00
53268;DHT22;39156;51.176;6.738;2023-05-10T10:50:08;18.00;69.40
53268;DHT22;39156;51.176;6.738;2023-05-10T10:55:40;17.90;68.40
53268;DHT22;39156;51.176;6.738;2023-05-10T10:57:58;17.90;68.70
53268;DHT22;39156;51.176;6.738;2023-05-10T11:00:37;18.00;68.40
53268;DHT22;39156;51.176;6.738;2023-05-10T11:05:43;18.10;68.60
53268;DHT22;39156;51.176;6.738;2023-05-10T11:08:19;18.00;68.50
53268;DHT22;39156;51.176;6.738;2023-05-10T11:11:06;18.10;68.90
53268;DHT22;39156;51.176;6.738;2023-05-10T11:13:45;18.20;68.30
53268;DHT22;39156;51.176;6.738;2023-05-10T11:16:23;18.20;68.20
53268;DHT22;39156;51.176;6.738;2023-05-10T11:19:08;18.20;68.40
53268;DHT22;39156;51.176;6.738;2023-05-10T11:21:45;18.30;68.30
53268;DHT22;39156;51.176;6.738;2023-05-10T11:24:17;18.30;67.70
53268;DHT22;39156;51.176;6.738;2023-05-10T11:26:44;18.40;67.80
53268;DHT22;39156;51.176;6.738;2023-05-10T11:29:12;18.40;67.70
53268;DHT22;39156;51.176;6.738;2023-05-10T11:31:46;18.40;67.30
53268;DHT22;39156;51.176;6.738;2023-05-10T11:34:31;18.40;67.00
53268;DHT22;39156;51.176;6.738;2023-05-10T11:37:00;18.40;66.10
53268;DHT22;39156;51.176;6.738;2023-05-10T11:39:28;18.50;66.60
53268;DHT22;39156;51.176;6.738;2023-05-10T11:41:54;18.40;66.70
53268;DHT22;39156;51.176;6.738;2023-05-10T11:44:20;18.40;66.70
53268;DHT22;39156;51.176;6.738;2023-05-10T11:46:46;18.40;67.30
53268;DHT22;39156;51.176;6.738;2023-05-10T11:49:15;18.30;67.10
53268;DHT22;39156;51.176;6.738;2023-05-10T11:51:41;18.30;67.50
53268;DHT22;39156;51.176;6.738;2023-05-10T11:54:10;18.40;67.00
53268;DHT22;39156;51.176;6.738;2023-05-10T11:56:37;18.40;66.70
53268;DHT22;39156;51.176;6.738;2023-05-10T11:59:04;18.50;66.40
53268;DHT22;39156;51.176;6.738;2023-05-10T12:01:30;18.50;66.70
53268;DHT22;39156;51.176;6.738;2023-05-10T12:03:57;18.60;66.20
53268;DHT22;39156;51.176;6.738;2023-05-10T12:06:30;18.50;66.50
53268;DHT22;39156;51.176;6.738;2023-05-10T12:08:57;18.50;66.20
53268;DHT22;39156;51.176;6.738;2023-05-10T12:11:27;18.50;66.00
53268;DHT22;39156;51.176;6.738;2023-05-10T12:13:55;18.40;65.80
53268;DHT22;39156;51.176;6.738;2023-05-10T12:16:29;18.30;66.30
53268;DHT22;39156;51.176;6.738;2023-05-10T12:18:59;18.20;66.10
53268;DHT22;39156;51.176;6.738;2023-05-10T12:21:26;18.20;67.30
53268;DHT22;39156;51.176;6.738;2023-05-10T12:23:58;18.10;67.60
53268;DHT22;39156;51.176;6.738;2023-05-10T12:26:25;18.00;67.70
53268;DHT22;39156;51.176;6.738;2023-05-10T12:28:55;17.90;68.10
53268;DHT22;39156;51.176;6.738;2023-05-10T12:31:21;17.90;68.60
53268;DHT22;39156;51.176;6.738;2023-05-10T12:33:46;17.90;68.70
53268;DHT22;39156;51.176;6.738;2023-05-10T12:36:15;17.90;68.90
53268;DHT22;39156;51.176;6.738;2023-05-10T12:38:45;17.80;69.20
53268;DHT22;39156;51.176;6.738;2023-05-10T12:41:16;17.80;69.50
53268;DHT22;39156;51.176;6.738;2023-05-10T12:43:43;17.80;69.40
53268;DHT22;39156;51.176;6.738;2023-05-10T12:46:13;17.90;69.80
53268;DHT22;39156;51.176;6.738;2023-05-10T12:48:43;17.90;69.80
53268;DHT22;39156;51.176;6.738;2023-05-10T12:51:09;17.90;69.00
53268;DHT22;39156;51.176;6.738;2023-05-10T12:53:37;17.90;69.00
53268;DHT22;39156;51.176;6.738;2023-05-10T12:56:03;18.00;69.30
53268;DHT22;39156;51.176;6.738;2023-05-10T12:58:29;18.00;69.50
53268;DHT22;39156;51.176;6.738;2023-05-10T13:00:55;18.10;69.40
53268;DHT22;39156;51.176;6.738;2023-05-10T13:03:22;18.00;69.10
53268;DHT22;39156;51.176;6.738;2023-05-10T13:05:48;18.10;69.00
53268;DHT22;39156;51.176;6.738;2023-05-10T13:08:14;18.00;68.80
53268;DHT22;39156;51.176;6.738;2023-05-10T13:10:40;18.00;68.50
53268;DHT22;39156;51.176;6.738;2023-05-10T13:13:06;18.00;68.70
53268;DHT22;39156;51.176;6.738;2023-05-10T13:15:32;17.90;68.20
53268;DHT22;39156;51.176;6.738;2023-05-10T13:17:58;18.00;69.00
53268;DHT22;39156;51.176;6.738;2023-05-10T13:20:24;18.00;69.00
53268;DHT22;39156;51.176;6.738;2023-05-10T13:22:50;18.00;68.70
53268;DHT22;39156;51.176;6.738;2023-05-10T13:25:16;18.00;68.80
53268;DHT22;39156;51.176;6.738;2023-05-10T13:27:42;18.00;68.90
53268;DHT22;39156;51.176;6.738;2023-05-10T13:30:08;18.00;68.20
53268;DHT22;39156;51.176;6.738;2023-05-10T13:32:36;18.00;68.00
53268;DHT22;39156;51.176;6.738;2023-05-10T13:35:02;17.90;67.80
53268;DHT22;39156;51.176;6.738;2023-05-10T13:37:29;18.00;67.70
53268;DHT22;39156;51.176;6.738;2023-05-10T13:39:55;17.90;68.00
53268;DHT22;39156;51.176;6.738;2023-05-10T13:42:22;17.90;68.50
53268;DHT22;39156;51.176;6.738;2023-05-10T13:44:49;17.90;67.60
53268;DHT22;39156;51.176;6.738;2023-05-10T13:47:15;17.80;68.20
53268;DHT22;39156;51.176;6.738;2023-05-10T13:49:41;17.80;68.60
53268;DHT22;39156;51.176;6.738;2023-05-10T13:52:07;17.70;68.70
53268;DHT22;39156;51.176;6.738;2023-05-10T13:54:36;17.70;68.80
53268;DHT22;39156;51.176;6.738;2023-05-10T13:57:02;17.70;69.00
53268;DHT22;39156;51.176;6.738;2023-05-10T13:59:28;17.70;69.10
53268;DHT22;39156;51.176;6.738;2023-05-10T14:01:54;17.70;70.30
53268;DHT22;39156;51.176;6.738;2023-05-10T14:04:20;17.70;69.30
53268;DHT22;39156;51.176;6.738;2023-05-10T14:06:45;17.70;69.30
53268;DHT22;39156;51.176;6.738;2023-05-10T14:09:11;17.70;69.40
53268;DHT22;39156;51.176;6.738;2023-05-10T14:11:37;17.80;69.30
53268;DHT22;39156;51.176;6.738;2023-05-10T14:14:07;17.80;69.60
53268;DHT22;39156;51.176;6.738;2023-05-10T14:16:32;17.80;68.40
53268;DHT22;39156;51.176;6.738;2023-05-10T14:18:58;17.90;68.40
53268;DHT22;39156;51.176;6.738;2023-05-10T14:21:24;17.90;68.10
53268;DHT22;39156;51.176;6.738;2023-05-10T14:23:49;18.00;68.00
53268;DHT22;39156;51.176;6.738;2023-05-10T14:26:15;18.10;67.90
53268;DHT22;39156;51.176;6.738;2023-05-10T14:28:41;18.20;68.30
53268;DHT22;39156;51.176;6.738;2023-05-10T14:31:07;18.30;67.70
53268;DHT22;39156;51.176;6.738;2023-05-10T14:33:32;18.40;67.40
53268;DHT22;39156;51.176;6.738;2023-05-10T14:35:58;18.50;67.50
53268;DHT22;39156;51.176;6.738;2023-05-10T14:38:25;18.60;67.00
53268;DHT22;39156;51.176;6.738;2023-05-10T14:40:51;18.70;68.00
53268;DHT22;39156;51.176;6.738;2023-05-10T14:43:17;18.80;66.50
53268;DHT22;39156;51.176;6.738;2023-05-10T14:45:43;18.90;66.40
53268;DHT22;39156;51.176;6.738;2023-05-10T14:48:10;18.90;66.70
53268;DHT22;39156;51.176;6.738;2023-05-10T14:50:40;18.90;66.50
53268;DHT22;39156;51.176;6.738;2023-05-10T14:53:06;19.00;66.50
53268;DHT22;39156;51.176;6.738;2023-05-10T14:55:32;19.10;65.70
53268;DHT22;39156;51.176;6.738;2023-05-10T14:57:58;19.20;66.10
53268;DHT22;39156;51.176;6.738;2023-05-10T15:00:24;19.20;65.10
53268;DHT22;39156;51.176;6.738;2023-05-10T15:02:49;19.20;65.20
53268;DHT22;39156;51.176;6.738;2023-05-10T15:05:15;19.30;65.00
53268;DHT22;39156;51.176;6.738;2023-05-10T15:07:41;19.30;64.90
53268;DHT22;39156;51.176;6.738;2023-05-10T15:10:09;19.30;64.80
53268;DHT22;39156;51.176;6.738;2023-05-10T15:12:35;19.30;64.90
53268;DHT22;39156;51.176;6.738;2023-05-10T15:15:01;19.40;64.70
53268;DHT22;39156;51.176;6.738;2023-05-10T15:17:27;19.40;64.40
53268;DHT22;39156;51.176;6.738;2023-05-10T15:19:53;19.40;63.70
53268;DHT22;39156;51.176;6.738;2023-05-10T15:22:18;19.40;63.50
53268;DHT22;39156;51.176;6.738;2023-05-10T15:24:44;19.40;63.90
53268;DHT22;39156;51.176;6.738;2023-05-10T15:27:12;19.50;63.50
53268;DHT22;39156;51.176;6.738;2023-05-10T15:29:40;19.50;63.80
53268;DHT22;39156;51.176;6.738;2023-05-10T15:32:06;19.50;63.40
53268;DHT22;39156;51.176;6.738;2023-05-10T15:34:32;19.60;63.80
53268;DHT22;39156;51.176;6.738;2023-05-10T15:36:58;19.60;63.40
53268;DHT22;39156;51.176;6.738;2023-05-10T15:39:24;19.70;63.40
53268;DHT22;39156;51.176;6.738;2023-05-10T15:41:49;19.70;63.00
53268;DHT22;39156;51.176;6.738;2023-05-10T15:44:16;19.70;63.30
53268;DHT22;39156;51.176;6.738;2023-05-10T15:46:42;19.70;63.50
53268;DHT22;39156;51.176;6.738;2023-05-10T15:49:07;19.60;63.00
53268;DHT22;39156;51.176;6.738;2023-05-10T15:51:33;19.60;62.70
53268;DHT22;39156;51.176;6.738;2023-05-10T15:53:59;19.60;62.90
53268;DHT22;39156;51.176;6.738;2023-05-10T15:56:27;19.50;62.50
53268;DHT22;39156;51.176;6.738;2023-05-10T15:58:53;19.50;62.40